createdAt,value
2022-10-01T00:00:22.334Z,51.53
2022-10-01T00:02:24.119Z,54.70
2022-10-01T00:04:27.091Z,57.17
2022-10-01T00:06:28.802Z,50.55
2022-10-01T00:08:32.209Z,51.20
2022-10-01T00:10:34.083Z,52.58
2022-10-01T00:12:35.775Z,52.08
2022-10-01T00:14:37.953Z,52.45
2022-10-01T00:16:39.713Z,50.25
2022-10-01T00:18:43.782Z,44.28
2022-10-01T00:20:45.758Z,42.25
2022-10-01T00:22:47.470Z,41.65
2022-10-01T00:24:49.170Z,41.13
2022-10-01T00:26:51.529Z,40.00
2022-10-01T00:29:05.080Z,39.47
2022-10-01T00:31:08.287Z,37.92
2022-10-01T00:33:10.392Z,39.00
2022-10-01T00:35:12.133Z,38.75
2022-10-01T00:37:13.855Z,36.28
2022-10-01T00:39:15.839Z,33.65
2022-10-01T00:41:18.469Z,34.53
2022-10-01T00:43:22.081Z,33.22
2022-10-01T00:45:24.059Z,28.40
2022-10-01T00:47:36.397Z,33.38
2022-10-01T00:49:39.470Z,30.75
2022-10-01T00:51:49.457Z,30.92
2022-10-01T00:53:51.372Z,29.00
2022-10-01T00:55:57.110Z,27.15
2022-10-01T00:57:59.970Z,27.33
2022-10-01T01:00:04.612Z,26.87
2022-10-01T01:02:06.521Z,26.08
2022-10-01T01:04:08.612Z,25.55
2022-10-01T01:06:10.299Z,24.13
2022-10-01T01:08:12.154Z,25.08
2022-10-01T01:10:16.530Z,25.67
2022-10-01T01:12:21.067Z,23.95
2022-10-01T01:14:55.016Z,26.95
2022-10-01T01:17:04.064Z,24.77
2022-10-01T01:19:27.625Z,23.88
2022-10-01T01:21:45.527Z,24.93
2022-10-01T01:24:19.167Z,24.23
2022-10-01T01:26:36.153Z,22.73
2022-10-01T01:28:46.559Z,23.52
2022-10-01T01:30:51.997Z,25.13
2022-10-01T01:33:03.938Z,26.63
2022-10-01T01:35:10.313Z,26.10
2022-10-01T01:37:15.620Z,28.13
2022-10-01T01:39:19.467Z,25.77
2022-10-01T01:41:24.597Z,27.83
2022-10-01T01:43:37.074Z,26.83
2022-10-01T01:45:40.424Z,28.90
2022-10-01T01:47:45.420Z,28.23
2022-10-01T01:49:47.213Z,27.83
2022-10-01T01:51:59.964Z,33.40
2022-10-01T01:54:01.959Z,31.50
2022-10-01T01:56:06.365Z,31.15
2022-10-01T01:58:08.238Z,31.02
2022-10-01T02:00:11.413Z,30.35
2022-10-01T02:02:19.434Z,29.67
2022-10-01T02:04:31.490Z,45.10
2022-10-01T02:06:39.421Z,37.92
2022-10-01T02:09:33.950Z,38.67
2022-10-01T02:11:47.885Z,33.70
2022-10-01T02:14:04.028Z,36.40
2022-10-01T02:16:24.513Z,33.55
2022-10-01T02:18:46.756Z,29.42
2022-10-01T02:20:54.654Z,30.30
2022-10-01T02:23:01.369Z,27.42
2022-10-01T02:25:05.664Z,26.10
2022-10-01T02:27:23.714Z,26.48
2022-10-01T02:29:25.528Z,25.75
2022-10-01T02:31:29.675Z,26.58
2022-10-01T02:33:34.653Z,25.48
2022-10-01T02:35:37.905Z,25.45
2022-10-01T02:37:43.073Z,24.55
2022-10-01T02:39:48.138Z,25.15
2022-10-01T02:41:53.791Z,24.95
2022-10-01T02:44:04.628Z,24.75
2022-10-01T02:46:38.138Z,23.35
2022-10-01T02:48:39.967Z,23.67
2022-10-01T02:50:48.690Z,24.08
2022-10-01T02:52:59.212Z,23.77
2022-10-01T02:55:05.032Z,24.40
2022-10-01T02:57:07.119Z,24.08
2022-10-01T02:59:08.923Z,26.85
2022-10-01T03:01:11.017Z,23.75
2022-10-01T03:03:12.911Z,24.23
2022-10-01T03:05:15.423Z,23.58
2022-10-01T03:07:17.487Z,24.10
2022-10-01T03:09:19.266Z,24.67
2022-10-01T03:11:20.941Z,24.40
2022-10-01T03:13:22.701Z,24.20
2022-10-01T03:15:24.563Z,25.38
2022-10-01T03:17:26.993Z,23.50
2022-10-01T03:19:28.851Z,26.30
2022-10-01T03:21:31.172Z,27.75
2022-10-01T03:23:33.125Z,26.02
2022-10-01T03:25:34.886Z,26.48
2022-10-01T03:27:36.862Z,26.17
2022-10-01T03:29:38.613Z,26.10
2022-10-01T03:31:40.446Z,29.60
2022-10-01T03:33:42.418Z,25.58
2022-10-01T03:35:44.148Z,25.55
2022-10-01T03:37:45.910Z,24.90
2022-10-01T03:39:47.648Z,26.55
2022-10-01T03:41:49.377Z,26.00
2022-10-01T03:43:51.458Z,25.17
2022-10-01T03:45:53.314Z,25.20
2022-10-01T03:47:55.052Z,22.80
2022-10-01T03:49:56.802Z,21.60
2022-10-01T03:51:58.598Z,21.88
2022-10-01T03:54:00.363Z,20.85
2022-10-01T03:56:02.402Z,20.77
2022-10-01T03:58:04.175Z,19.00
2022-10-01T04:00:06.221Z,20.95
2022-10-01T04:02:08.156Z,25.90
2022-10-01T04:04:10.039Z,26.88
2022-10-01T04:06:11.952Z,22.15
2022-10-01T04:08:14.582Z,22.73
2022-10-01T04:10:16.455Z,22.45
2022-10-01T04:12:18.110Z,20.38
2022-10-01T04:14:20.032Z,21.02
2022-10-01T04:16:21.858Z,20.08
2022-10-01T04:18:23.661Z,19.73
2022-10-01T04:20:25.547Z,19.50
2022-10-01T04:22:27.312Z,19.38
2022-10-01T04:24:29.003Z,18.08
2022-10-01T04:26:31.025Z,18.45
2022-10-01T04:28:32.977Z,19.35
2022-10-01T04:30:37.904Z,19.23
2022-10-01T04:32:39.744Z,19.52
2022-10-01T04:34:41.496Z,20.52
2022-10-01T04:36:43.226Z,19.40
2022-10-01T04:38:44.998Z,18.58
2022-10-01T04:40:46.692Z,19.25
2022-10-01T04:42:48.435Z,17.88
2022-10-01T04:44:50.314Z,18.98
2022-10-01T04:46:52.471Z,19.75
2022-10-01T04:48:54.183Z,20.08
2022-10-01T04:50:56.169Z,21.98
2022-10-01T04:53:00.214Z,20.85
2022-10-01T04:55:01.915Z,21.83
2022-10-01T04:57:03.698Z,20.98
2022-10-01T04:59:05.607Z,22.42
2022-10-01T05:01:07.451Z,21.67
2022-10-01T05:03:09.185Z,21.67
2022-10-01T05:05:10.958Z,20.27
2022-10-01T05:07:12.652Z,21.75
2022-10-01T05:09:14.382Z,20.40
2022-10-01T05:11:16.160Z,22.50
2022-10-01T05:13:18.580Z,24.17
2022-10-01T05:15:20.439Z,26.48
2022-10-01T05:17:23.839Z,28.95
2022-10-01T05:19:28.076Z,25.17
2022-10-01T05:21:29.909Z,43.85
2022-10-01T05:23:31.767Z,38.60
2022-10-01T05:25:33.494Z,28.02
2022-10-01T05:27:35.173Z,24.00
2022-10-01T05:29:36.906Z,22.23
2022-10-01T05:31:39.179Z,20.83
2022-10-01T05:33:41.276Z,19.45
2022-10-01T05:35:43.215Z,19.38
2022-10-01T05:37:44.938Z,21.30
2022-10-01T05:39:46.916Z,30.00
2022-10-01T05:41:48.859Z,38.50
2022-10-01T05:43:50.567Z,26.10
2022-10-01T05:45:52.421Z,24.48
2022-10-01T05:47:58.660Z,23.85
2022-10-01T05:50:00.350Z,27.52
2022-10-01T05:52:02.098Z,28.27
2022-10-01T05:54:03.898Z,44.28
2022-10-01T05:56:08.889Z,60.33
2022-10-01T05:58:13.060Z,45.50
2022-10-01T06:00:15.002Z,39.53
2022-10-01T06:02:16.928Z,30.40
2022-10-01T06:04:19.096Z,27.15
2022-10-01T06:06:25.059Z,26.67
2022-10-01T06:08:26.801Z,24.85
2022-10-01T06:10:28.707Z,26.77
2022-10-01T06:12:30.624Z,25.75
2022-10-01T06:14:32.307Z,24.25
2022-10-01T06:16:34.401Z,21.80
2022-10-01T06:18:36.233Z,19.88
2022-10-01T06:20:39.612Z,27.35
2022-10-01T06:22:43.591Z,25.98
2022-10-01T06:24:45.462Z,25.08
2022-10-01T06:26:47.175Z,21.40
2022-10-01T06:28:50.036Z,23.30
2022-10-01T06:30:51.862Z,22.37
2022-10-01T06:32:54.500Z,21.10
2022-10-01T06:34:56.302Z,22.20
2022-10-01T06:36:58.033Z,21.02
2022-10-01T06:38:59.761Z,21.83
2022-10-01T06:41:02.768Z,21.15
2022-10-01T06:43:04.904Z,22.63
2022-10-01T06:45:06.933Z,22.80
2022-10-01T06:47:09.450Z,23.38
2022-10-01T06:49:11.389Z,22.90
2022-10-01T06:51:13.096Z,21.63
2022-10-01T06:53:16.326Z,20.92
2022-10-01T06:55:19.093Z,22.55
2022-10-01T06:57:20.791Z,23.23
2022-10-01T06:59:22.532Z,23.13
2022-10-01T07:01:24.329Z,24.50
2022-10-01T07:03:26.087Z,25.05
2022-10-01T07:05:28.257Z,22.17
2022-10-01T07:07:34.406Z,22.30
2022-10-01T07:09:36.129Z,22.55
2022-10-01T07:11:37.983Z,21.90
2022-10-01T07:13:39.663Z,20.80
2022-10-01T07:15:41.383Z,20.40
2022-10-01T07:17:47.285Z,20.40
2022-10-01T07:19:48.965Z,20.10
2022-10-01T07:21:50.686Z,20.17
2022-10-01T07:23:52.599Z,20.42
2022-10-01T07:25:54.361Z,20.67
2022-10-01T07:28:06.526Z,21.25
2022-10-01T07:30:09.039Z,21.95
2022-10-01T07:32:10.943Z,23.85
2022-10-01T07:34:12.662Z,22.90
2022-10-01T07:36:15.090Z,23.05
2022-10-01T07:38:16.932Z,23.13
2022-10-01T07:40:18.869Z,22.98
2022-10-01T07:42:20.824Z,24.40
2022-10-01T07:44:22.714Z,22.38
2022-10-01T07:46:24.392Z,26.13
2022-10-01T07:48:26.965Z,25.10
2022-10-01T07:50:30.028Z,25.02
2022-10-01T07:52:31.755Z,26.10
2022-10-01T07:54:35.030Z,26.45
2022-10-01T07:56:36.888Z,25.60
2022-10-01T07:58:38.565Z,26.13
2022-10-01T08:00:40.426Z,26.77
2022-10-01T08:02:47.736Z,26.25
2022-10-01T08:04:49.481Z,26.88
2022-10-01T08:06:52.747Z,27.45
2022-10-01T08:08:54.550Z,27.45
2022-10-01T08:10:56.253Z,29.02
2022-10-01T08:13:03.338Z,19.73
2022-10-01T08:15:05.569Z,18.20
2022-10-01T08:17:07.366Z,17.50
2022-10-01T08:19:09.244Z,17.48
2022-10-01T08:21:11.136Z,15.68
2022-10-01T08:23:14.536Z,16.25
2022-10-01T08:25:16.478Z,15.68
2022-10-01T08:27:18.255Z,14.85
2022-10-01T08:29:20.024Z,14.32
2022-10-01T08:31:21.978Z,13.43
2022-10-01T08:33:23.955Z,13.23
2022-10-01T08:35:27.072Z,12.88
2022-10-01T08:37:29.969Z,13.15
2022-10-01T08:39:31.869Z,13.35
2022-10-01T08:41:42.407Z,13.15
2022-10-01T08:43:44.269Z,14.07
2022-10-01T08:45:53.020Z,14.38
2022-10-01T08:48:20.857Z,14.77
2022-10-01T08:50:55.764Z,14.48
2022-10-01T08:53:02.004Z,11.95
2022-10-01T08:55:10.149Z,13.63
2022-10-01T08:57:16.076Z,13.55
2022-10-01T08:59:27.649Z,13.55
2022-10-01T09:01:29.613Z,15.20
2022-10-01T09:03:32.312Z,13.75
2022-10-01T09:06:03.608Z,13.57
2022-10-01T09:08:28.424Z,13.15
2022-10-01T09:10:54.032Z,12.90
2022-10-01T09:13:27.604Z,14.25
2022-10-01T09:15:44.170Z,13.45
2022-10-01T09:18:14.230Z,12.50
2022-10-01T09:20:19.011Z,12.77
2022-10-01T09:22:44.313Z,11.30
2022-10-01T09:24:54.677Z,12.32
2022-10-01T09:26:56.470Z,13.30
2022-10-01T09:29:01.187Z,11.77
2022-10-01T09:31:25.097Z,11.98
2022-10-01T09:33:33.857Z,10.82
2022-10-01T09:36:00.207Z,10.90
2022-10-01T09:38:24.998Z,10.15
2022-10-01T09:40:35.164Z,11.57
2022-10-01T09:42:37.068Z,11.50
2022-10-01T09:44:39.060Z,11.23
2022-10-01T09:46:41.278Z,10.95
2022-10-01T09:49:01.690Z,11.10
2022-10-01T09:51:12.690Z,10.68
2022-10-01T09:53:20.220Z,11.35
2022-10-01T09:55:39.396Z,11.82
2022-10-01T09:57:44.857Z,10.63
2022-10-01T09:59:57.319Z,10.55
2022-10-01T10:02:02.206Z,10.95
2022-10-01T10:04:04.058Z,10.80
2022-10-01T10:06:06.233Z,11.90
2022-10-01T10:08:15.595Z,10.38
2022-10-01T10:10:33.428Z,11.32
2022-10-01T10:12:36.154Z,11.55
2022-10-01T10:14:39.514Z,10.37
2022-10-01T10:16:45.293Z,11.25
2022-10-01T10:18:49.490Z,10.85
2022-10-01T10:20:55.327Z,10.73
2022-10-01T10:23:32.383Z,10.15
2022-10-01T10:25:34.405Z,11.20
2022-10-01T10:27:36.148Z,10.55
2022-10-01T10:29:38.033Z,10.45
2022-10-01T10:31:44.061Z,9.77
2022-10-01T10:33:52.179Z,9.02
2022-10-01T10:36:06.029Z,8.85
2022-10-01T10:38:18.452Z,9.75
2022-10-01T10:40:29.103Z,9.15
2022-10-01T10:42:31.949Z,10.07
2022-10-01T10:44:37.613Z,11.10
2022-10-01T10:46:44.003Z,10.52
2022-10-01T10:48:55.440Z,9.32
2022-10-01T10:51:05.623Z,9.60
2022-10-01T10:53:21.983Z,9.60
2022-10-01T10:55:31.309Z,9.30
2022-10-01T10:57:34.594Z,9.20
2022-10-01T10:59:36.463Z,9.48
2022-10-01T11:01:43.037Z,8.95
2022-10-01T11:03:49.206Z,9.65
2022-10-01T11:05:51.026Z,8.77
2022-10-01T11:07:59.888Z,8.60
2022-10-01T11:10:13.343Z,8.40
2022-10-01T11:12:32.177Z,8.52
2022-10-01T11:14:37.056Z,7.97
2022-10-01T11:16:59.724Z,7.13
2022-10-01T11:19:23.138Z,8.63
2022-10-01T11:21:43.391Z,8.07
2022-10-01T11:24:19.375Z,7.20
2022-10-01T11:26:53.415Z,7.13
2022-10-01T11:28:58.148Z,7.10
2022-10-01T11:31:31.714Z,7.05
2022-10-01T11:33:53.396Z,6.63
2022-10-01T11:36:19.426Z,6.20
2022-10-01T11:38:42.981Z,6.85
2022-10-01T11:40:54.256Z,8.10
2022-10-01T11:43:03.725Z,7.43
2022-10-01T11:45:19.338Z,7.57
2022-10-01T11:47:28.907Z,7.95
2022-10-01T11:50:05.832Z,8.73
2022-10-01T11:52:37.983Z,7.95
2022-10-01T11:55:07.026Z,8.40
2022-10-01T11:57:14.670Z,8.95
2022-10-01T11:59:29.634Z,7.68
2022-10-01T12:01:49.851Z,8.13
2022-10-01T12:03:54.617Z,8.68
2022-10-01T12:05:58.236Z,10.52
2022-10-01T12:10:36.161Z,7.63
2022-10-01T12:12:46.320Z,8.45
2022-10-01T12:15:05.555Z,8.73
2022-10-01T12:17:28.584Z,8.50
2022-10-01T12:19:34.983Z,8.65
2022-10-01T12:21:44.977Z,8.20
2022-10-01T12:23:53.998Z,8.38
2022-10-01T12:26:00.043Z,8.13
2022-10-01T12:28:10.180Z,7.93
2022-10-01T12:30:23.023Z,8.63
2022-10-01T12:32:30.469Z,8.13
2022-10-01T12:34:55.023Z,7.72
2022-10-01T12:37:30.907Z,8.60
2022-10-01T12:39:43.339Z,8.40
2022-10-01T12:41:56.679Z,7.63
2022-10-01T12:44:36.442Z,7.90
2022-10-01T12:47:03.341Z,8.52
2022-10-01T12:49:10.667Z,8.18
2022-10-01T12:51:38.349Z,9.15
2022-10-01T12:54:03.280Z,8.02
2022-10-01T12:56:09.382Z,8.25
2022-10-01T12:58:11.272Z,8.82
2022-10-01T13:00:25.150Z,8.60
2022-10-01T13:03:29.139Z,8.57
2022-10-01T13:05:40.601Z,8.48
2022-10-01T13:07:51.375Z,9.30
2022-10-01T13:10:35.710Z,8.57
2022-10-01T13:12:59.577Z,11.38
2022-10-01T13:15:02.308Z,9.02
2022-10-01T13:17:17.597Z,8.90
2022-10-01T13:19:23.510Z,8.70
2022-10-01T13:21:33.274Z,9.07
2022-10-01T13:23:59.255Z,9.13
2022-10-01T13:26:17.117Z,9.02
2022-10-01T13:28:36.601Z,10.82
2022-10-01T13:30:56.668Z,10.60
2022-10-01T13:33:00.228Z,10.55
2022-10-01T13:35:23.153Z,13.82
2022-10-01T13:37:37.939Z,12.73
2022-10-01T13:39:39.722Z,10.52
2022-10-01T13:41:42.451Z,9.90
2022-10-01T13:44:10.607Z,9.80
2022-10-01T13:46:13.007Z,9.82
2022-10-01T13:48:19.451Z,13.05
2022-10-01T13:50:26.059Z,18.35
2022-10-01T13:52:27.954Z,11.30
2022-10-01T13:54:35.628Z,10.20
2022-10-01T13:56:38.467Z,10.25
2022-10-01T13:58:44.179Z,9.68
2022-10-01T14:00:50.258Z,10.02
2022-10-01T14:03:25.460Z,9.55
2022-10-01T14:05:35.415Z,12.82
2022-10-01T14:07:39.631Z,15.90
2022-10-01T14:09:54.909Z,12.27
2022-10-01T14:12:04.671Z,11.43
2022-10-01T14:14:20.935Z,12.10
2022-10-01T14:16:23.271Z,11.88
2022-10-01T14:18:30.258Z,11.40
2022-10-01T14:20:49.301Z,11.63
2022-10-01T14:23:11.337Z,11.52
2022-10-01T14:25:39.611Z,11.07
2022-10-01T14:27:51.984Z,10.98
2022-10-01T14:30:13.436Z,11.15
2022-10-01T14:32:37.312Z,12.35
2022-10-01T14:34:55.624Z,12.02
2022-10-01T14:36:58.119Z,12.52
2022-10-01T14:39:18.419Z,10.80
2022-10-01T14:41:24.089Z,12.02
2022-10-01T14:43:29.179Z,12.15
2022-10-01T14:45:31.085Z,12.02
2022-10-01T14:47:32.812Z,11.55
2022-10-01T14:49:34.856Z,11.63
2022-10-01T14:51:36.648Z,11.32
2022-10-01T14:53:42.737Z,11.02
2022-10-01T14:55:45.515Z,12.00
2022-10-01T14:57:50.303Z,11.20
2022-10-01T14:59:52.321Z,11.38
2022-10-01T15:01:57.393Z,11.55
2022-10-01T15:03:59.302Z,11.38
2022-10-01T15:06:10.757Z,10.70
2022-10-01T15:08:16.758Z,12.13
2022-10-01T15:10:20.639Z,11.93
2022-10-01T15:12:23.280Z,17.27
2022-10-01T15:14:25.931Z,12.40
2022-10-01T15:16:29.055Z,11.93
2022-10-01T15:18:31.596Z,12.43
2022-10-01T15:20:33.757Z,11.13
2022-10-01T15:22:35.535Z,16.20
2022-10-01T15:24:43.284Z,13.35
2022-10-01T15:26:48.097Z,11.50
2022-10-01T15:28:50.018Z,12.48
2022-10-01T15:30:52.035Z,12.77
2022-10-01T15:32:54.910Z,13.32
2022-10-01T15:35:00.122Z,14.77
2022-10-01T15:37:02.721Z,12.70
2022-10-01T15:39:32.848Z,13.63
2022-10-01T15:41:34.874Z,14.60
2022-10-01T15:43:39.936Z,13.55
2022-10-01T15:45:41.944Z,13.13
2022-10-01T15:47:54.418Z,20.13
2022-10-01T15:50:11.052Z,16.42
2022-10-01T15:52:16.097Z,17.75
2022-10-01T15:54:17.922Z,20.35
2022-10-01T15:56:23.154Z,23.45
2022-10-01T15:58:35.209Z,20.50
2022-10-01T16:01:03.065Z,36.92
2022-10-01T16:03:05.020Z,22.10
2022-10-01T16:05:07.391Z,15.98
2022-10-01T16:07:19.539Z,15.63
2022-10-01T16:09:25.055Z,14.80
2022-10-01T16:11:27.369Z,35.25
2022-10-01T16:13:41.379Z,16.38
2022-10-01T16:17:54.105Z,17.73
2022-10-01T16:20:01.462Z,39.55
2022-10-01T16:22:15.129Z,20.63
2022-10-01T16:24:26.715Z,31.77
2022-10-01T16:26:32.827Z,29.95
2022-10-01T16:28:35.868Z,20.90
2022-10-01T16:30:37.691Z,23.83
2022-10-01T16:32:39.906Z,18.88
2022-10-01T16:34:41.657Z,28.83
2022-10-01T16:36:43.766Z,21.95
2022-10-01T16:38:45.755Z,21.10
2022-10-01T16:40:47.727Z,26.35
2022-10-01T16:42:50.113Z,22.95
2022-10-01T16:44:52.278Z,27.42
2022-10-01T16:46:53.991Z,31.35
2022-10-01T16:48:55.814Z,25.80
2022-10-01T16:50:57.619Z,20.75
2022-10-01T16:52:59.322Z,19.70
2022-10-01T16:55:01.072Z,19.15
2022-10-01T16:57:02.856Z,21.45
2022-10-01T16:59:04.539Z,26.75
2022-10-01T17:01:10.374Z,26.58
2022-10-01T17:03:16.129Z,21.95
2022-10-01T17:05:23.861Z,28.70
2022-10-01T17:07:25.650Z,27.45
2022-10-01T17:09:27.397Z,22.17
2022-10-01T17:11:29.333Z,23.45
2022-10-01T17:13:33.128Z,26.15
2022-10-01T17:15:34.879Z,25.67
2022-10-01T17:17:36.578Z,30.35
2022-10-01T17:19:38.442Z,23.27
2022-10-01T17:21:40.975Z,49.55
2022-10-01T17:23:42.690Z,42.47
2022-10-01T17:25:44.997Z,37.97
2022-10-01T17:27:47.342Z,34.13
2022-10-01T17:29:49.127Z,35.20
2022-10-01T17:31:50.844Z,58.17
2022-10-01T17:33:52.539Z,52.28
2022-10-01T17:35:54.291Z,36.90
2022-10-01T17:37:56.090Z,29.52
2022-10-01T17:39:57.844Z,27.55
2022-10-01T17:41:59.597Z,36.25
2022-10-01T17:44:01.625Z,33.13
2022-10-01T17:46:03.440Z,27.65
2022-10-01T17:48:05.314Z,32.00
2022-10-01T17:50:07.224Z,26.23
2022-10-01T17:52:09.393Z,26.80
2022-10-01T17:54:11.150Z,30.77
2022-10-01T17:56:18.062Z,26.98
2022-10-01T17:58:19.934Z,25.05
2022-10-01T18:00:21.683Z,25.17
2022-10-01T18:02:40.943Z,25.63
2022-10-01T18:04:43.592Z,24.00
2022-10-01T18:06:45.334Z,25.77
2022-10-01T18:08:55.953Z,35.40
2022-10-01T18:11:09.806Z,26.58
2022-10-01T18:13:11.529Z,27.00
2022-10-01T18:15:13.349Z,28.45
2022-10-01T18:17:15.382Z,25.90
2022-10-01T18:21:39.122Z,36.53
2022-10-01T18:23:42.192Z,51.22
2022-10-01T18:25:43.896Z,39.25
2022-10-01T18:27:47.165Z,42.05
2022-10-01T18:29:48.955Z,50.92
2022-10-01T18:31:53.730Z,36.92
2022-10-01T18:34:01.433Z,32.50
2022-10-01T18:36:06.102Z,29.33
2022-10-01T18:38:17.391Z,67.55
2022-10-01T18:40:28.105Z,27.30
2022-10-01T18:42:54.306Z,59.00
2022-10-01T18:44:58.348Z,32.33
2022-10-01T18:47:18.211Z,26.10
2022-10-01T18:49:53.593Z,44.15
2022-10-01T18:52:10.688Z,35.22
2022-10-01T18:54:43.925Z,40.92
2022-10-01T18:57:21.585Z,42.10
2022-10-01T18:59:39.925Z,61.75
2022-10-01T19:01:56.717Z,43.42
2022-10-01T19:04:10.590Z,34.35
2022-10-01T19:06:33.705Z,22.73
2022-10-01T19:08:51.415Z,21.30
2022-10-01T19:11:08.837Z,20.42
2022-10-01T19:13:19.533Z,22.67
2022-10-01T19:15:37.309Z,31.15
2022-10-01T19:18:07.336Z,23.92
2022-10-01T19:20:43.828Z,26.33
2022-10-01T19:23:28.555Z,21.75
2022-10-01T19:25:49.081Z,18.35
2022-10-01T19:28:09.247Z,18.08
2022-10-01T19:30:14.285Z,28.67
2022-10-01T19:32:26.286Z,31.63
2022-10-01T19:34:37.912Z,25.65
2022-10-01T19:36:45.522Z,57.30
2022-10-01T19:38:50.121Z,48.53
2022-10-01T19:41:22.887Z,35.50
2022-10-01T19:43:37.641Z,52.40
2022-10-01T19:46:06.072Z,37.20
2022-10-01T19:48:19.293Z,56.58
2022-10-01T19:50:44.264Z,18.20
2022-10-01T19:52:46.279Z,36.10
2022-10-01T19:54:54.247Z,30.13
2022-10-01T19:57:05.894Z,24.33
2022-10-01T19:59:12.214Z,20.77
2022-10-01T20:01:21.844Z,21.60
2022-10-01T20:03:42.549Z,21.40
2022-10-01T20:05:52.178Z,13.57
2022-10-01T20:08:06.216Z,9.38
2022-10-01T20:12:44.289Z,11.93
2022-10-01T20:15:01.545Z,5.97
2022-10-01T20:17:12.730Z,4.38
2022-10-01T20:19:28.238Z,4.63
2022-10-01T20:21:35.976Z,4.03
2022-10-01T20:23:54.123Z,4.32
2022-10-01T20:26:14.690Z,3.72
2022-10-01T20:28:41.373Z,4.88
2022-10-01T20:30:59.706Z,4.90
2022-10-01T20:33:36.446Z,4.22
2022-10-01T20:36:01.430Z,4.50
2022-10-01T20:38:15.708Z,6.35
2022-10-01T20:40:38.961Z,14.15
2022-10-01T20:42:48.490Z,11.65
2022-10-01T20:44:52.334Z,18.02
2022-10-01T20:47:00.356Z,12.68
2022-10-01T20:49:08.914Z,14.98
2022-10-01T20:51:17.613Z,17.92
2022-10-01T20:53:45.084Z,15.57
2022-10-01T20:55:55.444Z,14.00
2022-10-01T20:58:02.518Z,12.75
2022-10-01T21:00:26.050Z,12.70
2022-10-01T21:02:40.063Z,14.27
2022-10-01T21:04:51.030Z,13.25
2022-10-01T21:06:57.604Z,13.93
2022-10-01T21:09:09.974Z,12.98
2022-10-01T21:11:18.678Z,11.85
2022-10-01T21:13:29.585Z,10.00
2022-10-01T21:15:59.045Z,8.80
2022-10-01T21:18:16.535Z,8.32
2022-10-01T21:20:27.339Z,10.45
2022-10-01T21:22:44.081Z,10.95
2022-10-01T21:24:55.471Z,11.35
2022-10-01T21:27:47.860Z,12.05
2022-10-01T21:30:12.335Z,11.90
2022-10-01T21:32:19.985Z,10.95
2022-10-01T21:34:46.732Z,9.43
2022-10-01T21:36:58.961Z,6.47
2022-10-01T21:39:20.845Z,7.65
2022-10-01T21:41:42.648Z,7.63
2022-10-01T21:44:02.949Z,7.38
2022-10-01T21:46:36.787Z,7.40
2022-10-01T21:49:00.361Z,8.30
2022-10-01T21:51:14.682Z,7.07
2022-10-01T21:53:35.169Z,6.78
2022-10-01T21:56:04.424Z,7.53
2022-10-01T21:58:32.497Z,7.13
2022-10-01T22:00:34.326Z,7.72
2022-10-01T22:02:47.772Z,8.60
2022-10-01T22:04:56.198Z,8.05
2022-10-01T22:07:26.607Z,7.60
2022-10-01T22:09:57.140Z,7.80
2022-10-01T22:12:02.128Z,7.28
2022-10-01T22:14:13.550Z,7.38
2022-10-01T22:16:16.432Z,7.32
2022-10-01T22:18:25.342Z,7.63
2022-10-01T22:20:33.681Z,7.88
2022-10-01T22:22:39.771Z,8.48
2022-10-01T22:24:48.415Z,8.00
2022-10-01T22:26:54.750Z,7.88
2022-10-01T22:28:59.622Z,7.63
2022-10-01T22:31:05.179Z,7.80
2022-10-01T22:33:22.274Z,7.45
2022-10-01T22:35:32.794Z,7.85
2022-10-01T22:37:42.353Z,7.95
2022-10-01T22:39:54.584Z,8.30
2022-10-01T22:42:07.439Z,8.32
2022-10-01T22:44:15.392Z,7.78
2022-10-01T22:46:42.319Z,8.55
2022-10-01T22:49:21.469Z,8.20
2022-10-01T22:51:44.904Z,8.32
2022-10-01T22:54:05.029Z,8.98
2022-10-01T22:56:06.827Z,8.18
2022-10-01T22:58:35.528Z,8.63
2022-10-01T23:01:05.421Z,8.10
2022-10-01T23:03:14.655Z,8.75
2022-10-01T23:05:40.696Z,8.45
2022-10-01T23:08:27.887Z,8.77
2022-10-01T23:10:45.764Z,9.45
2022-10-01T23:12:57.988Z,9.27
2022-10-01T23:15:05.611Z,8.68
2022-10-01T23:17:25.421Z,9.88
2022-10-01T23:19:39.061Z,10.68
2022-10-01T23:21:48.603Z,9.93
2022-10-01T23:24:13.038Z,9.77
2022-10-01T23:29:00.310Z,10.45
2022-10-01T23:31:26.148Z,11.38
2022-10-01T23:33:27.914Z,11.50
2022-10-01T23:35:38.618Z,11.75
2022-10-01T23:37:58.248Z,11.07
2022-10-01T23:40:11.182Z,11.57
2022-10-01T23:42:15.664Z,11.73
2022-10-01T23:44:38.715Z,12.25
2022-10-01T23:46:42.966Z,12.68
2022-10-01T23:48:57.951Z,12.13
2022-10-01T23:51:21.626Z,12.88
2022-10-01T23:53:31.133Z,12.43
2022-10-01T23:55:52.324Z,11.73
2022-10-01T23:58:02.381Z,12.88
